KBRG/BRG METAR and TAF weather

Enter ICAO airport designator
Station Type Date Time Source
KBRG METAR 2019/11/15 05:35 UTC NOAA

KBRG 150535Z AUTO 14006KT 10SM CLR 05/M05 A3036 RMK AO2 T00491048


Station Type Date Time Source
KBRG Decoded METAR 2019/11/15 05:35 UTC NOAA

Station name not available
Nov 15, 2019 - 12:35 AM EST / 2019.11.15 0535 UTC
Wind: from the SE (140 degrees) at 7 MPH (6 KT):0
Visibility: 10 mile(s):0
Sky conditions: clear
Temperature: 40.8 F (4.9 C)
Dew Point: 23.4 F (-4.8 C)
Relative Humidity: 49%
Pressure (altimeter): 30.36 in. Hg (1028 hPa)
ob: KBRG 150535Z AUTO 14006KT 10SM CLR 05/M05 A3036 RMK AO2 T00491048
cycle: 5

Station Type Date Time Source
KBRG TAF 2012/07/03 12:12 UTC NOAA

TAF SKBRG 031000Z 031212 VRB02KT 9999 FEW017 SCT080
TEMPO 0312/0317 11005KT VCTS - DZRAFEW015CB BKN070
TEMPO 0318/0323 TSRA FEW017CB BKN070
TEMPO 0400/0402 VCTS FEW020CB
TEMPO 0402/0406 -DZ SCT015CB
TEMPO 0408/0412 00000KT 5000 BCFG FEW005 TX23/0319Z TN10/0411Z

Example: see airport list